sensor_id;sensor_type;location;lat;lon;timestamp;pressure;altitude;pressure_sealevel;temperature;humidity
68873;BME280;55907;50.806;12.882;2023-06-26T00:02:23;974.6;;;18.6;78.4
68873;BME280;55907;50.806;12.882;2023-06-26T00:05:25;974.5;;;18.6;80.3
68873;BME280;55907;50.806;12.882;2023-06-26T00:08:27;974.5;;;18.5;80.4
68873;BME280;55907;50.806;12.882;2023-06-26T00:11:28;974.5;;;18.5;80.0
68873;BME280;55907;50.806;12.882;2023-06-26T00:14:29;974.5;;;18.5;80.0
68873;BME280;55907;50.806;12.882;2023-06-26T00:17:31;974.5;;;18.4;80.1
68873;BME280;55907;50.806;12.882;2023-06-26T00:20:32;974.5;;;18.4;80.3
68873;BME280;55907;50.806;12.882;2023-06-26T00:23:34;974.4;;;18.3;80.0
68873;BME280;55907;50.806;12.882;2023-06-26T00:26:35;974.4;;;18.3;80.6
68873;BME280;55907;50.806;12.882;2023-06-26T00:29:36;974.4;;;18.3;81.6
68873;BME280;55907;50.806;12.882;2023-06-26T00:32:38;974.4;;;18.3;81.6
68873;BME280;55907;50.806;12.882;2023-06-26T00:35:39;974.5;;;18.3;81.8
68873;BME280;55907;50.806;12.882;2023-06-26T00:38:41;974.4;;;18.4;81.7
68873;BME280;55907;50.806;12.882;2023-06-26T00:44:44;974.4;;;18.4;80.3
68873;BME280;55907;50.806;12.882;2023-06-26T00:47:45;974.4;;;18.4;80.4
68873;BME280;55907;50.806;12.882;2023-06-26T00:50:46;974.4;;;18.3;80.9
68873;BME280;55907;50.806;12.882;2023-06-26T00:53:48;974.3;;;18.3;80.0
68873;BME280;55907;50.806;12.882;2023-06-26T00:56:49;974.3;;;18.2;80.5
68873;BME280;55907;50.806;12.882;2023-06-26T00:59:51;974.3;;;18.2;80.8
68873;BME280;55907;50.806;12.882;2023-06-26T01:02:52;974.3;;;18.1;81.1
68873;BME280;55907;50.806;12.882;2023-06-26T01:05:55;974.3;;;18.1;79.6
68873;BME280;55907;50.806;12.882;2023-06-26T01:08:55;974.3;;;18.1;82.1
68873;BME280;55907;50.806;12.882;2023-06-26T01:11:57;974.3;;;18.1;80.7
68873;BME280;55907;50.806;12.882;2023-06-26T01:14:58;974.2;;;18.1;79.9
68873;BME280;55907;50.806;12.882;2023-06-26T01:21:02;974.2;;;18.2;80.0
68873;BME280;55907;50.806;12.882;2023-06-26T01:24:07;974.1;;;18.2;78.4
68873;BME280;55907;50.806;12.882;2023-06-26T01:27:05;974.2;;;18.2;77.9
68873;BME280;55907;50.806;12.882;2023-06-26T01:30:06;974.1;;;18.3;79.2
68873;BME280;55907;50.806;12.882;2023-06-26T01:33:07;974.1;;;18.3;80.5
68873;BME280;55907;50.806;12.882;2023-06-26T01:36:08;974.1;;;18.2;81.3
68873;BME280;55907;50.806;12.882;2023-06-26T01:39:10;974.1;;;18.3;81.3
68873;BME280;55907;50.806;12.882;2023-06-26T01:42:11;974.1;;;18.2;82.6
68873;BME280;55907;50.806;12.882;2023-06-26T01:45:17;974.0;;;18.2;82.8
68873;BME280;55907;50.806;12.882;2023-06-26T01:48:16;974.0;;;18.2;83.0
68873;BME280;55907;50.806;12.882;2023-06-26T01:51:17;973.9;;;18.1;83.2
68873;BME280;55907;50.806;12.882;2023-06-26T01:54:18;973.9;;;18.0;83.6
68873;BME280;55907;50.806;12.882;2023-06-26T01:57:19;973.9;;;18.0;84.4
68873;BME280;55907;50.806;12.882;2023-06-26T02:00:20;973.9;;;18.0;84.2
68873;BME280;55907;50.806;12.882;2023-06-26T02:03:21;973.8;;;18.0;84.3
68873;BME280;55907;50.806;12.882;2023-06-26T02:06:23;973.8;;;17.9;84.9
68873;BME280;55907;50.806;12.882;2023-06-26T02:09:24;973.8;;;17.9;82.9
68873;BME280;55907;50.806;12.882;2023-06-26T02:12:25;973.8;;;17.9;84.5
68873;BME280;55907;50.806;12.882;2023-06-26T02:15:27;973.8;;;17.8;84.3
68873;BME280;55907;50.806;12.882;2023-06-26T02:18:28;973.8;;;17.8;85.2
68873;BME280;55907;50.806;12.882;2023-06-26T02:21:30;973.8;;;17.8;84.3
68873;BME280;55907;50.806;12.882;2023-06-26T02:24:31;973.8;;;17.8;84.7
68873;BME280;55907;50.806;12.882;2023-06-26T02:27:33;973.8;;;17.7;83.1
68873;BME280;55907;50.806;12.882;2023-06-26T02:30:34;973.7;;;17.7;85.1
68873;BME280;55907;50.806;12.882;2023-06-26T02:33:36;973.7;;;17.7;85.5
68873;BME280;55907;50.806;12.882;2023-06-26T02:36:37;973.8;;;17.7;84.4
68873;BME280;55907;50.806;12.882;2023-06-26T02:39:38;973.8;;;17.7;84.9
68873;BME280;55907;50.806;12.882;2023-06-26T02:42:40;973.8;;;17.7;84.6
68873;BME280;55907;50.806;12.882;2023-06-26T02:48:43;973.7;;;17.7;83.0
68873;BME280;55907;50.806;12.882;2023-06-26T02:51:44;973.7;;;17.7;82.3
68873;BME280;55907;50.806;12.882;2023-06-26T02:54:46;973.7;;;17.7;84.0
68873;BME280;55907;50.806;12.882;2023-06-26T02:57:47;973.7;;;17.7;84.2
68873;BME280;55907;50.806;12.882;2023-06-26T03:00:49;973.7;;;17.7;83.8
68873;BME280;55907;50.806;12.882;2023-06-26T03:03:50;973.7;;;17.6;82.2
68873;BME280;55907;50.806;12.882;2023-06-26T03:06:51;973.6;;;17.6;83.0
68873;BME280;55907;50.806;12.882;2023-06-26T03:09:53;973.6;;;17.7;82.4
68873;BME280;55907;50.806;12.882;2023-06-26T03:12:54;973.7;;;17.7;81.6
68873;BME280;55907;50.806;12.882;2023-06-26T03:15:56;973.6;;;17.7;82.6
68873;BME280;55907;50.806;12.882;2023-06-26T03:18:57;973.6;;;17.8;81.4
68873;BME280;55907;50.806;12.882;2023-06-26T03:21:59;973.6;;;17.9;80.7
68873;BME280;55907;50.806;12.882;2023-06-26T03:25:01;973.6;;;18.0;80.6
68873;BME280;55907;50.806;12.882;2023-06-26T03:28:02;973.5;;;18.0;79.6
68873;BME280;55907;50.806;12.882;2023-06-26T03:31:03;973.6;;;18.1;79.3
68873;BME280;55907;50.806;12.882;2023-06-26T03:34:05;973.6;;;18.2;79.0
68873;BME280;55907;50.806;12.882;2023-06-26T03:37:06;973.5;;;18.3;78.7
68873;BME280;55907;50.806;12.882;2023-06-26T03:40:08;973.6;;;18.4;79.1
68873;BME280;55907;50.806;12.882;2023-06-26T03:43:09;973.6;;;18.4;79.0
68873;BME280;55907;50.806;12.882;2023-06-26T03:46:10;973.5;;;18.5;78.2
68873;BME280;55907;50.806;12.882;2023-06-26T03:49:12;973.5;;;18.6;77.5
68873;BME280;55907;50.806;12.882;2023-06-26T03:52:13;973.5;;;18.8;76.6
68873;BME280;55907;50.806;12.882;2023-06-26T03:55:15;973.5;;;18.9;76.5
68873;BME280;55907;50.806;12.882;2023-06-26T03:58:16;973.5;;;19.0;76.4
68873;BME280;55907;50.806;12.882;2023-06-26T04:01:17;973.5;;;19.1;75.3
68873;BME280;55907;50.806;12.882;2023-06-26T04:04:19;973.4;;;19.2;75.0
68873;BME280;55907;50.806;12.882;2023-06-26T04:07:20;973.4;;;19.2;74.5
68873;BME280;55907;50.806;12.882;2023-06-26T04:10:22;973.4;;;19.3;74.2
68873;BME280;55907;50.806;12.882;2023-06-26T04:13:23;973.5;;;19.3;74.4
68873;BME280;55907;50.806;12.882;2023-06-26T04:16:25;973.4;;;19.3;74.2
68873;BME280;55907;50.806;12.882;2023-06-26T04:22:27;973.4;;;19.6;73.0
68873;BME280;55907;50.806;12.882;2023-06-26T04:25:29;973.4;;;19.9;72.1
68873;BME280;55907;50.806;12.882;2023-06-26T04:28:31;973.4;;;20.2;70.9
68873;BME280;55907;50.806;12.882;2023-06-26T04:31:32;973.4;;;21.1;68.8
68873;BME280;55907;50.806;12.882;2023-06-26T04:34:33;973.4;;;22.0;64.4
68873;BME280;55907;50.806;12.882;2023-06-26T04:37:35;973.4;;;22.1;63.3
68873;BME280;55907;50.806;12.882;2023-06-26T04:40:36;973.4;;;22.0;63.5
68873;BME280;55907;50.806;12.882;2023-06-26T04:43:37;973.4;;;21.9;64.1
68873;BME280;55907;50.806;12.882;2023-06-26T04:46:39;973.4;;;21.9;64.0
68873;BME280;55907;50.806;12.882;2023-06-26T04:49:40;973.4;;;22.8;62.2
68873;BME280;55907;50.806;12.882;2023-06-26T04:52:42;973.3;;;23.9;58.2
68873;BME280;55907;50.806;12.882;2023-06-26T04:55:43;973.4;;;24.1;57.2
68873;BME280;55907;50.806;12.882;2023-06-26T04:58:44;973.3;;;23.8;57.3
68873;BME280;55907;50.806;12.882;2023-06-26T05:01:46;973.4;;;24.5;56.0
68873;BME280;55907;50.806;12.882;2023-06-26T05:04:47;973.3;;;26.0;52.6
68873;BME280;55907;50.806;12.882;2023-06-26T05:07:49;973.3;;;28.1;46.8
68873;BME280;55907;50.806;12.882;2023-06-26T05:10:50;973.3;;;29.4;45.8
68873;BME280;55907;50.806;12.882;2023-06-26T05:13:51;973.3;;;30.3;41.2
68873;BME280;55907;50.806;12.882;2023-06-26T05:16:53;973.3;;;31.2;41.4
68873;BME280;55907;50.806;12.882;2023-06-26T05:19:54;973.3;;;32.0;40.3
68873;BME280;55907;50.806;12.882;2023-06-26T05:22:56;973.2;;;32.9;36.6
68873;BME280;55907;50.806;12.882;2023-06-26T05:25:57;973.3;;;33.7;35.5
68873;BME280;55907;50.806;12.882;2023-06-26T05:28:58;973.3;;;34.4;35.5
68873;BME280;55907;50.806;12.882;2023-06-26T05:32:00;973.2;;;34.9;33.0
68873;BME280;55907;50.806;12.882;2023-06-26T05:35:02;973.2;;;35.4;33.1
68873;BME280;55907;50.806;12.882;2023-06-26T05:38:02;973.2;;;36.0;32.8
68873;BME280;55907;50.806;12.882;2023-06-26T05:41:04;973.2;;;36.0;30.7
68873;BME280;55907;50.806;12.882;2023-06-26T05:44:05;973.2;;;36.3;31.5
68873;BME280;55907;50.806;12.882;2023-06-26T05:47:06;973.2;;;35.9;32.0
68873;BME280;55907;50.806;12.882;2023-06-26T05:50:08;973.3;;;35.1;31.3
68873;BME280;55907;50.806;12.882;2023-06-26T05:53:09;973.3;;;34.0;33.0
68873;BME280;55907;50.806;12.882;2023-06-26T05:56:11;973.2;;;32.9;35.3
68873;BME280;55907;50.806;12.882;2023-06-26T05:59:12;973.2;;;31.8;36.1
68873;BME280;55907;50.806;12.882;2023-06-26T06:02:13;973.1;;;31.1;38.3
68873;BME280;55907;50.806;12.882;2023-06-26T06:05:14;973.1;;;30.8;39.4
68873;BME280;55907;50.806;12.882;2023-06-26T06:08:16;973.1;;;30.8;39.4
68873;BME280;55907;50.806;12.882;2023-06-26T06:11:17;973.1;;;31.0;39.5
68873;BME280;55907;50.806;12.882;2023-06-26T06:14:18;973.1;;;31.5;37.9
68873;BME280;55907;50.806;12.882;2023-06-26T06:17:20;973.1;;;32.2;36.3
68873;BME280;55907;50.806;12.882;2023-06-26T06:20:21;973.1;;;32.3;35.8
68873;BME280;55907;50.806;12.882;2023-06-26T06:23:22;973.1;;;32.0;34.2
68873;BME280;55907;50.806;12.882;2023-06-26T06:26:24;973.1;;;30.9;35.9
68873;BME280;55907;50.806;12.882;2023-06-26T06:29:25;973.1;;;29.8;37.9
68873;BME280;55907;50.806;12.882;2023-06-26T06:32:26;973.1;;;29.2;39.9
68873;BME280;55907;50.806;12.882;2023-06-26T06:35:28;973.1;;;28.7;41.0
68873;BME280;55907;50.806;12.882;2023-06-26T06:38:29;973.0;;;28.2;42.5
68873;BME280;55907;50.806;12.882;2023-06-26T06:41:30;973.1;;;28.0;43.1
68873;BME280;55907;50.806;12.882;2023-06-26T06:44:32;973.1;;;27.6;43.7
68873;BME280;55907;50.806;12.882;2023-06-26T06:47:34;973.1;;;27.5;44.0
68873;BME280;55907;50.806;12.882;2023-06-26T06:50:35;973.1;;;27.5;44.2
68873;BME280;55907;50.806;12.882;2023-06-26T06:53:36;973.1;;;27.6;43.9
68873;BME280;55907;50.806;12.882;2023-06-26T06:56:37;973.0;;;28.1;42.6
68873;BME280;55907;50.806;12.882;2023-06-26T06:59:39;973.0;;;28.3;41.9
68873;BME280;55907;50.806;12.882;2023-06-26T07:02:42;973.0;;;28.6;41.9
68873;BME280;55907;50.806;12.882;2023-06-26T07:05:42;973.1;;;28.9;41.4
68873;BME280;55907;50.806;12.882;2023-06-26T07:08:43;973.0;;;29.0;40.9
68873;BME280;55907;50.806;12.882;2023-06-26T07:11:44;973.0;;;28.8;40.5
68873;BME280;55907;50.806;12.882;2023-06-26T07:14:46;972.9;;;28.5;41.9
68873;BME280;55907;50.806;12.882;2023-06-26T07:17:47;972.9;;;28.5;42.3
68873;BME280;55907;50.806;12.882;2023-06-26T07:20:48;972.9;;;28.5;41.9
68873;BME280;55907;50.806;12.882;2023-06-26T07:23:50;972.9;;;28.2;42.9
68873;BME280;55907;50.806;12.882;2023-06-26T07:26:51;972.9;;;28.1;43.2
68873;BME280;55907;50.806;12.882;2023-06-26T07:29:52;972.9;;;28.0;42.9
68873;BME280;55907;50.806;12.882;2023-06-26T07:32:54;972.9;;;27.9;42.9
68873;BME280;55907;50.806;12.882;2023-06-26T07:35:55;972.9;;;27.8;43.9
68873;BME280;55907;50.806;12.882;2023-06-26T07:38:56;972.9;;;27.8;43.7
68873;BME280;55907;50.806;12.882;2023-06-26T07:41:58;972.9;;;27.7;43.8
68873;BME280;55907;50.806;12.882;2023-06-26T07:44:59;972.8;;;27.5;43.8
68873;BME280;55907;50.806;12.882;2023-06-26T07:48:01;972.8;;;27.5;44.6
68873;BME280;55907;50.806;12.882;2023-06-26T07:51:02;972.8;;;27.5;44.5
68873;BME280;55907;50.806;12.882;2023-06-26T07:54:03;972.8;;;27.5;44.9
68873;BME280;55907;50.806;12.882;2023-06-26T07:57:05;972.8;;;27.7;45.1
68873;BME280;55907;50.806;12.882;2023-06-26T08:00:07;972.9;;;27.8;45.4
68873;BME280;55907;50.806;12.882;2023-06-26T08:03:07;972.8;;;27.8;43.3
68873;BME280;55907;50.806;12.882;2023-06-26T08:06:09;972.8;;;28.0;43.9
68873;BME280;55907;50.806;12.882;2023-06-26T08:09:10;972.8;;;28.2;44.9
68873;BME280;55907;50.806;12.882;2023-06-26T08:12:12;972.8;;;28.3;44.2
68873;BME280;55907;50.806;12.882;2023-06-26T08:15:13;972.7;;;28.4;43.1
68873;BME280;55907;50.806;12.882;2023-06-26T08:18:14;972.8;;;28.4;41.9
68873;BME280;55907;50.806;12.882;2023-06-26T08:21:16;972.8;;;28.5;42.0
68873;BME280;55907;50.806;12.882;2023-06-26T08:24:17;972.8;;;28.6;41.9
68873;BME280;55907;50.806;12.882;2023-06-26T08:27:18;972.7;;;28.6;40.7
68873;BME280;55907;50.806;12.882;2023-06-26T08:30:20;972.7;;;29.0;41.9
68873;BME280;55907;50.806;12.882;2023-06-26T08:33:21;972.7;;;29.4;40.5
68873;BME280;55907;50.806;12.882;2023-06-26T08:36:22;972.7;;;30.0;39.0
68873;BME280;55907;50.806;12.882;2023-06-26T08:39:24;972.6;;;30.8;36.8
68873;BME280;55907;50.806;12.882;2023-06-26T08:42:25;972.7;;;31.8;35.2
68873;BME280;55907;50.806;12.882;2023-06-26T08:45:26;972.7;;;32.8;34.1
68873;BME280;55907;50.806;12.882;2023-06-26T08:48:29;972.7;;;34.0;31.1
68873;BME280;55907;50.806;12.882;2023-06-26T08:51:30;972.7;;;35.0;28.4
68873;BME280;55907;50.806;12.882;2023-06-26T08:54:34;972.7;;;36.4;27.6
68873;BME280;55907;50.806;12.882;2023-06-26T08:57:32;972.7;;;37.5;26.9
68873;BME280;55907;50.806;12.882;2023-06-26T09:00:33;972.7;;;38.2;25.1
68873;BME280;55907;50.806;12.882;2023-06-26T09:03:35;972.7;;;38.7;23.8
68873;BME280;55907;50.806;12.882;2023-06-26T09:06:36;972.7;;;38.6;23.5
68873;BME280;55907;50.806;12.882;2023-06-26T09:09:37;972.7;;;38.9;22.6
68873;BME280;55907;50.806;12.882;2023-06-26T09:12:39;972.7;;;39.4;24.0
68873;BME280;55907;50.806;12.882;2023-06-26T09:15:42;972.7;;;39.9;24.7
68873;BME280;55907;50.806;12.882;2023-06-26T09:18:41;972.7;;;40.1;22.8
68873;BME280;55907;50.806;12.882;2023-06-26T09:21:43;972.6;;;39.9;21.1
68873;BME280;55907;50.806;12.882;2023-06-26T09:24:45;972.7;;;39.4;22.5
68873;BME280;55907;50.806;12.882;2023-06-26T09:27:46;972.7;;;39.0;22.6
68873;BME280;55907;50.806;12.882;2023-06-26T09:30:47;972.7;;;38.9;23.4
68873;BME280;55907;50.806;12.882;2023-06-26T09:33:48;972.7;;;38.5;22.8
68873;BME280;55907;50.806;12.882;2023-06-26T09:36:53;972.7;;;38.0;24.6
68873;BME280;55907;50.806;12.882;2023-06-26T09:39:51;972.7;;;37.7;24.8
68873;BME280;55907;50.806;12.882;2023-06-26T09:42:52;972.6;;;37.5;25.0
68873;BME280;55907;50.806;12.882;2023-06-26T09:45:54;972.6;;;37.3;25.1
68873;BME280;55907;50.806;12.882;2023-06-26T09:49:01;972.6;;;37.0;25.7
68873;BME280;55907;50.806;12.882;2023-06-26T09:51:59;972.6;;;36.5;24.2
68873;BME280;55907;50.806;12.882;2023-06-26T09:55:08;972.5;;;36.2;25.0
68873;BME280;55907;50.806;12.882;2023-06-26T09:58:00;972.5;;;36.2;25.7
68873;BME280;55907;50.806;12.882;2023-06-26T10:01:00;972.5;;;36.0;24.5
68873;BME280;55907;50.806;12.882;2023-06-26T10:04:02;972.5;;;35.4;25.2
68873;BME280;55907;50.806;12.882;2023-06-26T10:07:05;972.5;;;35.3;26.1
68873;BME280;55907;50.806;12.882;2023-06-26T10:10:05;972.4;;;35.2;26.6
68873;BME280;55907;50.806;12.882;2023-06-26T10:13:19;972.4;;;35.1;26.2
68873;BME280;55907;50.806;12.882;2023-06-26T10:16:08;972.4;;;35.0;25.9
68873;BME280;55907;50.806;12.882;2023-06-26T10:19:10;972.3;;;34.9;26.9
68873;BME280;55907;50.806;12.882;2023-06-26T10:22:11;972.3;;;35.0;25.7
68873;BME280;55907;50.806;12.882;2023-06-26T10:25:14;972.3;;;34.8;25.7
68873;BME280;55907;50.806;12.882;2023-06-26T10:28:14;972.2;;;34.8;26.4
68873;BME280;55907;50.806;12.882;2023-06-26T10:31:14;972.2;;;34.7;26.4
68873;BME280;55907;50.806;12.882;2023-06-26T10:34:15;972.2;;;34.7;25.2
68873;BME280;55907;50.806;12.882;2023-06-26T10:37:17;972.1;;;34.7;26.3
68873;BME280;55907;50.806;12.882;2023-06-26T10:40:23;972.1;;;34.9;25.4
68873;BME280;55907;50.806;12.882;2023-06-26T10:43:19;972.1;;;34.9;25.2
68873;BME280;55907;50.806;12.882;2023-06-26T10:46:21;972.0;;;34.8;25.5
68873;BME280;55907;50.806;12.882;2023-06-26T10:49:25;972.0;;;34.6;26.1
68873;BME280;55907;50.806;12.882;2023-06-26T10:55:27;972.0;;;34.5;26.2
68873;BME280;55907;50.806;12.882;2023-06-26T10:58:27;972.0;;;34.3;26.2
68873;BME280;55907;50.806;12.882;2023-06-26T11:01:27;972.0;;;34.1;25.5
68873;BME280;55907;50.806;12.882;2023-06-26T11:04:38;972.0;;;34.0;26.6
68873;BME280;55907;50.806;12.882;2023-06-26T11:07:30;971.9;;;34.0;25.5
68873;BME280;55907;50.806;12.882;2023-06-26T11:10:49;971.9;;;33.8;26.3
68873;BME280;55907;50.806;12.882;2023-06-26T11:13:34;971.9;;;33.8;25.7
68873;BME280;55907;50.806;12.882;2023-06-26T11:16:34;971.9;;;33.5;26.1
68873;BME280;55907;50.806;12.882;2023-06-26T11:19:36;971.8;;;33.4;26.6
68873;BME280;55907;50.806;12.882;2023-06-26T11:22:39;971.9;;;33.4;28.5
68873;BME280;55907;50.806;12.882;2023-06-26T11:25:38;971.8;;;33.6;28.4
68873;BME280;55907;50.806;12.882;2023-06-26T11:28:46;971.8;;;33.6;27.4
68873;BME280;55907;50.806;12.882;2023-06-26T11:31:41;971.8;;;33.8;28.4
68873;BME280;55907;50.806;12.882;2023-06-26T11:34:42;971.8;;;33.6;27.3
68873;BME280;55907;50.806;12.882;2023-06-26T11:40:48;971.7;;;33.7;28.0
68873;BME280;55907;50.806;12.882;2023-06-26T11:43:47;971.7;;;33.7;28.3
68873;BME280;55907;50.806;12.882;2023-06-26T11:46:51;971.6;;;33.7;28.2
68873;BME280;55907;50.806;12.882;2023-06-26T11:49:49;971.6;;;33.6;27.4
68873;BME280;55907;50.806;12.882;2023-06-26T11:52:54;971.6;;;33.6;28.2
68873;BME280;55907;50.806;12.882;2023-06-26T11:55:52;971.5;;;33.5;27.1
68873;BME280;55907;50.806;12.882;2023-06-26T11:58:55;971.5;;;33.4;27.5
68873;BME280;55907;50.806;12.882;2023-06-26T12:01:55;971.5;;;33.8;28.1
68873;BME280;55907;50.806;12.882;2023-06-26T12:04:56;971.5;;;33.8;27.2
68873;BME280;55907;50.806;12.882;2023-06-26T12:07:58;971.4;;;33.8;27.2
68873;BME280;55907;50.806;12.882;2023-06-26T12:10:59;971.5;;;33.6;27.7
68873;BME280;55907;50.806;12.882;2023-06-26T12:14:01;971.5;;;33.6;26.7
68873;BME280;55907;50.806;12.882;2023-06-26T12:17:04;971.5;;;33.5;26.6
68873;BME280;55907;50.806;12.882;2023-06-26T12:20:04;971.4;;;33.5;27.2
68873;BME280;55907;50.806;12.882;2023-06-26T12:23:11;971.4;;;33.7;28.4
68873;BME280;55907;50.806;12.882;2023-06-26T12:26:16;971.4;;;33.5;26.4
68873;BME280;55907;50.806;12.882;2023-06-26T12:29:08;971.4;;;33.2;27.1
68873;BME280;55907;50.806;12.882;2023-06-26T12:32:09;971.3;;;33.1;28.1
68873;BME280;55907;50.806;12.882;2023-06-26T12:35:10;971.4;;;33.0;27.9
68873;BME280;55907;50.806;12.882;2023-06-26T12:38:11;971.3;;;33.0;27.9
68873;BME280;55907;50.806;12.882;2023-06-26T12:41:12;971.3;;;33.1;28.2
68873;BME280;55907;50.806;12.882;2023-06-26T12:44:17;971.3;;;33.2;28.8
68873;BME280;55907;50.806;12.882;2023-06-26T12:47:16;971.2;;;33.3;26.9
68873;BME280;55907;50.806;12.882;2023-06-26T12:50:16;971.2;;;33.2;26.5
68873;BME280;55907;50.806;12.882;2023-06-26T12:53:18;971.2;;;33.3;27.5
68873;BME280;55907;50.806;12.882;2023-06-26T12:56:19;971.2;;;33.2;27.0
68873;BME280;55907;50.806;12.882;2023-06-26T12:59:21;971.1;;;33.3;27.0
68873;BME280;55907;50.806;12.882;2023-06-26T13:02:22;971.1;;;33.2;27.0
68873;BME280;55907;50.806;12.882;2023-06-26T13:05:23;971.0;;;33.4;27.8
68873;BME280;55907;50.806;12.882;2023-06-26T13:08:25;971.0;;;33.5;27.4
68873;BME280;55907;50.806;12.882;2023-06-26T13:11:26;970.9;;;33.7;27.8
68873;BME280;55907;50.806;12.882;2023-06-26T13:17:29;970.8;;;33.7;27.7
68873;BME280;55907;50.806;12.882;2023-06-26T13:20:30;970.7;;;33.6;27.5
68873;BME280;55907;50.806;12.882;2023-06-26T13:23:31;970.7;;;33.9;29.9
68873;BME280;55907;50.806;12.882;2023-06-26T13:26:33;970.7;;;33.9;28.4
68873;BME280;55907;50.806;12.882;2023-06-26T13:29:34;970.6;;;33.8;27.7
68873;BME280;55907;50.806;12.882;2023-06-26T13:32:35;970.6;;;33.7;28.4
68873;BME280;55907;50.806;12.882;2023-06-26T13:35:37;970.6;;;33.2;27.6
68873;BME280;55907;50.806;12.882;2023-06-26T13:38:39;970.6;;;33.1;28.1
68873;BME280;55907;50.806;12.882;2023-06-26T13:41:39;970.6;;;33.1;29.0
68873;BME280;55907;50.806;12.882;2023-06-26T13:44:41;970.6;;;33.2;28.1
68873;BME280;55907;50.806;12.882;2023-06-26T13:47:42;970.5;;;33.2;28.2
68873;BME280;55907;50.806;12.882;2023-06-26T13:50:44;970.5;;;33.3;29.0
68873;BME280;55907;50.806;12.882;2023-06-26T13:53:45;970.4;;;33.4;28.7
68873;BME280;55907;50.806;12.882;2023-06-26T13:56:46;970.4;;;33.5;29.1
68873;BME280;55907;50.806;12.882;2023-06-26T13:59:48;970.4;;;33.5;28.7
68873;BME280;55907;50.806;12.882;2023-06-26T14:02:49;970.4;;;33.3;28.7
68873;BME280;55907;50.806;12.882;2023-06-26T14:05:50;970.4;;;33.0;29.4
68873;BME280;55907;50.806;12.882;2023-06-26T14:08:51;970.4;;;33.0;29.5
68873;BME280;55907;50.806;12.882;2023-06-26T14:11:53;970.3;;;33.0;29.8
68873;BME280;55907;50.806;12.882;2023-06-26T14:14:54;970.2;;;33.1;29.3
68873;BME280;55907;50.806;12.882;2023-06-26T14:17:55;970.1;;;33.1;29.0
68873;BME280;55907;50.806;12.882;2023-06-26T14:20:57;970.1;;;33.1;29.1
68873;BME280;55907;50.806;12.882;2023-06-26T14:23:58;970.0;;;33.0;30.0
68873;BME280;55907;50.806;12.882;2023-06-26T14:26:59;969.9;;;33.1;30.2
68873;BME280;55907;50.806;12.882;2023-06-26T14:30:01;969.9;;;33.0;30.0
68873;BME280;55907;50.806;12.882;2023-06-26T14:33:02;969.8;;;32.7;30.1
68873;BME280;55907;50.806;12.882;2023-06-26T14:36:03;969.8;;;32.4;28.9
68873;BME280;55907;50.806;12.882;2023-06-26T14:39:05;969.8;;;32.2;29.0
68873;BME280;55907;50.806;12.882;2023-06-26T14:42:06;969.8;;;32.0;29.6
68873;BME280;55907;50.806;12.882;2023-06-26T14:45:08;969.7;;;31.8;29.8
68873;BME280;55907;50.806;12.882;2023-06-26T14:48:09;969.7;;;31.8;30.0
68873;BME280;55907;50.806;12.882;2023-06-26T14:51:10;969.6;;;32.0;30.2
68873;BME280;55907;50.806;12.882;2023-06-26T14:54:12;969.6;;;32.1;30.4
68873;BME280;55907;50.806;12.882;2023-06-26T14:57:13;969.6;;;31.8;29.7
68873;BME280;55907;50.806;12.882;2023-06-26T15:03:16;969.5;;;31.2;31.0
68873;BME280;55907;50.806;12.882;2023-06-26T15:09:18;969.6;;;30.8;31.7
68873;BME280;55907;50.806;12.882;2023-06-26T15:12:20;969.6;;;30.6;33.5
68873;BME280;55907;50.806;12.882;2023-06-26T15:15:21;969.5;;;30.3;32.6
68873;BME280;55907;50.806;12.882;2023-06-26T15:18:22;969.8;;;30.2;34.1
68873;BME280;55907;50.806;12.882;2023-06-26T15:21:24;970.1;;;29.6;36.5
68873;BME280;55907;50.806;12.882;2023-06-26T15:24:25;970.2;;;28.7;43.1
68873;BME280;55907;50.806;12.882;2023-06-26T15:30:28;970.2;;;26.9;53.8
68873;BME280;55907;50.806;12.882;2023-06-26T15:33:29;970.2;;;26.0;58.3
68873;BME280;55907;50.806;12.882;2023-06-26T15:36:30;970.2;;;25.4;61.5
68873;BME280;55907;50.806;12.882;2023-06-26T15:39:32;970.1;;;24.9;63.0
68873;BME280;55907;50.806;12.882;2023-06-26T15:42:44;970.2;;;24.6;64.8
68873;BME280;55907;50.806;12.882;2023-06-26T15:45:35;970.2;;;24.5;65.2
68873;BME280;55907;50.806;12.882;2023-06-26T15:48:36;970.2;;;24.3;66.3
68873;BME280;55907;50.806;12.882;2023-06-26T15:51:37;970.3;;;24.2;66.6
68873;BME280;55907;50.806;12.882;2023-06-26T15:54:39;970.4;;;24.3;66.2
68873;BME280;55907;50.806;12.882;2023-06-26T15:57:40;970.5;;;24.5;66.0
68873;BME280;55907;50.806;12.882;2023-06-26T16:00:41;970.4;;;24.5;65.1
68873;BME280;55907;50.806;12.882;2023-06-26T16:03:43;970.6;;;24.6;64.3
68873;BME280;55907;50.806;12.882;2023-06-26T16:06:44;970.6;;;24.7;64.3
68873;BME280;55907;50.806;12.882;2023-06-26T16:09:46;970.6;;;24.8;63.4
68873;BME280;55907;50.806;12.882;2023-06-26T16:12:47;970.6;;;24.9;63.6
68873;BME280;55907;50.806;12.882;2023-06-26T16:15:48;970.7;;;24.9;62.6
68873;BME280;55907;50.806;12.882;2023-06-26T16:21:51;970.8;;;24.5;64.5
68873;BME280;55907;50.806;12.882;2023-06-26T16:24:53;970.9;;;24.4;65.5
68873;BME280;55907;50.806;12.882;2023-06-26T16:27:54;971.0;;;24.4;66.0
68873;BME280;55907;50.806;12.882;2023-06-26T16:33:57;971.2;;;24.2;67.4
68873;BME280;55907;50.806;12.882;2023-06-26T16:36:58;971.2;;;24.2;67.1
68873;BME280;55907;50.806;12.882;2023-06-26T16:39:59;971.3;;;24.2;68.3
68873;BME280;55907;50.806;12.882;2023-06-26T16:43:01;971.3;;;24.3;67.9
68873;BME280;55907;50.806;12.882;2023-06-26T16:46:02;971.2;;;24.4;68.5
68873;BME280;55907;50.806;12.882;2023-06-26T16:49:04;971.3;;;24.5;69.3
68873;BME280;55907;50.806;12.882;2023-06-26T16:52:05;971.3;;;24.5;69.4
68873;BME280;55907;50.806;12.882;2023-06-26T16:55:07;971.4;;;24.4;70.1
68873;BME280;55907;50.806;12.882;2023-06-26T16:58:08;971.4;;;24.2;69.7
68873;BME280;55907;50.806;12.882;2023-06-26T17:01:09;971.4;;;24.2;70.3
68873;BME280;55907;50.806;12.882;2023-06-26T17:04:11;971.5;;;24.2;69.1
68873;BME280;55907;50.806;12.882;2023-06-26T17:07:12;971.5;;;24.2;70.6
68873;BME280;55907;50.806;12.882;2023-06-26T17:10:13;971.5;;;24.1;69.3
68873;BME280;55907;50.806;12.882;2023-06-26T17:13:15;971.6;;;24.0;70.0
68873;BME280;55907;50.806;12.882;2023-06-26T17:16:16;971.6;;;24.0;70.0
68873;BME280;55907;50.806;12.882;2023-06-26T17:19:18;971.6;;;23.9;70.5
68873;BME280;55907;50.806;12.882;2023-06-26T17:22:19;971.7;;;23.9;71.2
68873;BME280;55907;50.806;12.882;2023-06-26T17:25:20;971.7;;;23.7;72.9
68873;BME280;55907;50.806;12.882;2023-06-26T17:28:22;971.8;;;23.5;75.0
68873;BME280;55907;50.806;12.882;2023-06-26T17:31:23;971.8;;;23.1;75.9